Time;durP1;ratioP1;P1;durP2;ratioP2;P2;SDS_P1;SDS_P2;PMS_P1;PMS_P2;Temp;Humidity;BMP_temperature;BMP_pressure;BME280_temperature;BME280_humidity;BME280_pressure;Samples;Min_cycle;Max_cycle;Signal;HPM_P1;HPM_P2
2021/12/16 00:06:22;;;;;;;;;58.75;43.75;;;;;9.46;74.76;103206.00;4956571;28;45360;-50
2021/12/16 00:08:45;;;;;;;;;60.25;43.50;;;;;9.48;74.76;103206.81;4954680;28;45420;-50
2021/12/16 00:30:37;;;;;;;;;62.50;43.00;;;;;9.57;73.74;103205.47;5009925;28;45412;-55
2021/12/16 00:33:13;;;;;;;;;61.25;45.75;;;;;9.59;74.39;103203.59;5017314;28;45425;-51
2021/12/16 00:35:42;;;;;;;;;55.25;44.00;;;;;9.58;73.97;103201.00;5016763;28;46280;-54
2021/12/16 00:38:08;;;;;;;;;57.50;45.75;;;;;9.53;73.58;103197.75;5017477;28;45360;-55
2021/12/16 00:40:34;;;;;;;;;63.00;46.75;;;;;9.53;73.67;103209.22;5017618;28;45338;-58
2021/12/16 00:43:15;;;;;;;;;63.00;48.50;;;;;9.47;73.79;103191.78;5017457;28;45314;-55
2021/12/16 00:55:59;;;;;;;;;63.00;49.00;;;;;9.68;73.19;103196.91;5016816;28;45597;-57
2021/12/16 00:58:35;;;;;;;;;63.50;46.00;;;;;9.70;73.61;103195.91;5017206;28;45302;-57
2021/12/16 01:01:14;;;;;;;;;60.25;43.50;;;;;9.73;73.11;103189.56;5017269;28;45373;-54
2021/12/16 01:34:30;;;;;;;;;54.00;38.00;;;;;9.68;73.31;103192.47;4955463;28;45620;-57
2021/12/16 01:50:26;;;;;;;;;53.50;40.25;;;;;9.74;73.44;103204.59;5019855;28;45431;-53
2021/12/16 01:55:34;;;;;;;;;52.00;40.00;;;;;9.70;73.52;103201.22;5020045;28;45381;-51
2021/12/16 01:58:12;;;;;;;;;64.25;42.50;;;;;9.75;72.86;103212.47;5018906;28;45409;-57
2021/12/16 02:00:59;;;;;;;;;63.00;45.50;;;;;9.71;73.52;103208.25;5019730;28;45464;-54
2021/12/16 02:03:39;;;;;;;;;58.00;42.00;;;;;9.73;72.93;103208.16;5019613;28;45393;-51
2021/12/16 02:06:36;;;;;;;;;64.75;46.25;;;;;9.70;73.31;103201.22;5019668;28;45467;-52
2021/12/16 02:08:58;;;;;;;;;55.25;42.75;;;;;9.78;72.61;103213.28;5019812;28;45525;-49
2021/12/16 02:11:57;;;;;;;;;57.75;39.50;;;;;9.70;72.39;103198.56;5019497;28;46032;-52
2021/12/16 02:34:02;;;;;;;;;59.25;42.00;;;;;9.82;73.20;103207.69;4999432;28;45247;-51
2021/12/16 02:36:21;;;;;;;;;47.50;42.00;;;;;9.87;73.05;103212.78;4998956;28;45508;-51
2021/12/16 02:38:50;;;;;;;;;64.50;46.50;;;;;9.86;72.89;103209.25;4999529;28;45268;-50
2021/12/16 02:41:17;;;;;;;;;48.75;40.25;;;;;9.87;73.03;103212.78;4999567;28;45291;-51
2021/12/16 02:48:45;;;;;;;;;59.25;38.75;;;;;9.88;72.78;103210.03;4999321;28;45373;-52
2021/12/16 02:51:12;;;;;;;;;50.00;41.25;;;;;9.90;73.22;103212.59;4999229;28;45356;-51
2021/12/16 02:53:47;;;;;;;;;53.50;41.50;;;;;9.91;72.62;103211.66;4998928;28;46374;-50
2021/12/16 02:56:13;;;;;;;;;47.75;34.25;;;;;9.82;72.49;103198.84;4999365;28;45370;-55
2021/12/16 02:58:41;;;;;;;;;53.25;39.50;;;;;9.93;72.39;103201.78;4999173;28;45304;-55
2021/12/16 03:01:21;;;;;;;;;46.50;37.50;;;;;9.94;72.60;103209.72;4999130;28;45430;-50
2021/12/16 03:03:47;;;;;;;;;54.25;40.00;;;;;9.95;72.70;103207.91;4999109;28;46209;-51
2021/12/16 03:06:12;;;;;;;;;41.00;35.25;;;;;9.96;72.33;103209.63;4999111;28;45274;-52
2021/12/16 03:08:40;;;;;;;;;43.25;38.25;;;;;9.96;72.52;103202.50;4999045;28;45386;-53
2021/12/16 03:17:08;;;;;;;;;44.25;38.50;;;;;10.00;72.61;103209.38;5018086;28;45409;-49
2021/12/16 03:20:00;;;;;;;;;44.75;35.50;;;;;10.02;72.46;103206.63;5018361;28;45443;-51
2021/12/16 03:25:29;;;;;;;;;37.25;34.75;;;;;10.02;71.85;103227.88;5018623;28;45341;-50
2021/12/16 03:38:13;;;;;;;;;35.75;26.25;;;;;10.07;71.95;103219.66;5018225;28;45357;-51
2021/12/16 03:40:39;;;;;;;;;33.00;29.00;;;;;10.06;71.57;103202.00;5033715;28;45244;-52
2021/12/16 03:43:15;;;;;;;;;30.00;24.25;;;;;10.10;71.91;103219.50;5018563;28;45165;-52
2021/12/16 03:48:41;;;;;;;;;36.50;30.00;;;;;10.12;71.87;103215.81;5018133;28;45345;-49
2021/12/16 03:51:17;;;;;;;;;26.00;21.33;;;;;10.12;71.87;103204.34;5018048;28;45302;-50
2021/12/16 03:53:45;;;;;;;;;32.33;22.33;;;;;10.09;71.67;103208.00;5018275;28;45570;-51
2021/12/16 03:56:11;;;;;;;;;24.67;24.67;;;;;10.11;71.18;103210.56;5017371;28;46243;-49
2021/12/16 03:58:38;;;;;;;;;29.50;24.75;;;;;10.14;71.44;103215.72;5017993;28;45441;-50
2021/12/16 04:01:08;;;;;;;;;30.00;21.67;;;;;10.16;71.42;103220.03;5018213;28;45335;-48
2021/12/16 04:03:34;;;;;;;;;28.50;26.00;;;;;10.10;71.76;103204.41;5017413;28;45277;-53
2021/12/16 04:06:00;;;;;;;;;28.33;23.67;;;;;10.18;71.42;103209.31;5017843;28;45976;-50
2021/12/16 04:08:26;;;;;;;;;34.00;21.33;;;;;10.18;71.21;103214.63;5017721;28;45273;-50
2021/12/16 04:11:07;;;;;;;;;32.00;26.50;;;;;10.18;71.33;103223.47;5018382;28;45312;-53
2021/12/16 04:13:42;;;;;;;;;33.25;23.50;;;;;10.22;71.60;103213.53;5018308;28;45350;-50
2021/12/16 04:16:07;;;;;;;;;36.50;25.00;;;;;10.18;71.48;103204.84;5017428;28;47050;-53
2021/12/16 04:18:33;;;;;;;;;28.75;23.00;;;;;10.22;71.89;103214.38;5017651;28;45234;-51
2021/12/16 04:20:59;;;;;;;;;25.33;25.33;;;;;10.22;71.22;103224.16;5016918;28;45318;-54
2021/12/16 04:23:24;;;;;;;;;31.25;26.25;;;;;10.23;71.55;103216.09;5017976;28;45234;-51
2021/12/16 04:25:50;;;;;;;;;27.00;25.50;;;;;10.23;71.22;103215.22;5017946;28;45472;-51
2021/12/16 04:28:23;;;;;;;;;29.50;19.75;;;;;10.24;71.34;103215.19;5017683;28;45409;-57
2021/12/16 04:30:49;;;;;;;;;29.25;24.75;;;;;10.26;71.14;103231.06;5017641;28;45534;-49
2021/12/16 04:33:15;;;;;;;;;25.00;21.00;;;;;10.20;71.54;103210.94;5017729;28;45244;-50
2021/12/16 04:35:42;;;;;;;;;29.33;23.00;;;;;10.26;71.31;103220.41;5017453;28;45436;-54
2021/12/16 04:38:10;;;;;;;;;38.25;28.75;;;;;10.25;71.35;103226.69;5017308;28;45484;-52
2021/12/16 04:40:38;;;;;;;;;32.33;23.00;;;;;10.28;71.84;103237.19;5017610;28;45568;-52
2021/12/16 04:43:05;;;;;;;;;27.33;22.33;;;;;10.25;71.98;103224.03;5017678;28;45393;-50
2021/12/16 04:45:33;;;;;;;;;33.00;26.50;;;;;10.28;71.70;103230.97;5015946;28;46264;-50
2021/12/16 04:47:58;;;;;;;;;33.25;27.00;;;;;10.29;71.62;103232.72;5017331;28;45277;-48
2021/12/16 04:50:24;;;;;;;;;34.33;26.00;;;;;10.30;71.59;103239.75;5017311;28;45465;-50
2021/12/16 04:52:50;;;;;;;;;28.75;25.50;;;;;10.29;71.81;103236.22;5017315;28;45252;-52
2021/12/16 04:55:19;;;;;;;;;33.75;21.25;;;;;10.30;71.50;103235.28;5017150;28;45467;-54
2021/12/16 04:57:47;;;;;;;;;37.50;25.75;;;;;10.30;71.83;103232.63;5017322;28;45151;-54
2021/12/16 05:00:17;;;;;;;;;38.75;29.00;;;;;10.31;71.39;103228.16;5017517;28;45362;-51
2021/12/16 05:02:43;;;;;;;;;44.25;31.50;;;;;10.32;71.67;103232.53;5017290;28;45453;-50
2021/12/16 05:05:10;;;;;;;;;37.25;29.50;;;;;10.33;71.84;103243.09;5016786;28;46003;-51
2021/12/16 05:07:36;;;;;;;;;28.50;25.75;;;;;10.33;72.00;103237.78;5017014;28;45415;-52
2021/12/16 05:10:09;;;;;;;;;36.00;29.50;;;;;10.30;71.84;103237.06;5015646;28;45608;-48
2021/12/16 05:12:40;;;;;;;;;26.50;25.50;;;;;10.34;71.68;103242.16;5017387;28;45282;-51
2021/12/16 05:15:10;;;;;;;;;42.00;30.75;;;;;10.36;71.77;103240.25;5016396;28;46449;-48
2021/12/16 05:17:55;;;;;;;;;37.25;30.25;;;;;10.35;71.97;103235.88;5016647;28;45301;-49
2021/12/16 05:20:28;;;;;;;;;36.00;29.75;;;;;10.36;71.82;103242.03;5016819;28;45491;-52
2021/12/16 05:28:13;;;;;;;;;38.25;29.50;;;;;10.36;72.61;103239.38;5016682;28;45398;-56
2021/12/16 05:30:38;;;;;;;;;33.00;27.50;;;;;10.37;72.00;103243.78;5016907;28;45157;-48
2021/12/16 05:33:05;;;;;;;;;35.25;29.25;;;;;10.38;72.28;103249.03;5016876;28;45307;-51
2021/12/16 05:35:32;;;;;;;;;28.00;19.00;;;;;10.38;72.02;103248.16;5016564;28;45436;-52
2021/12/16 05:37:57;;;;;;;;;37.00;30.75;;;;;10.37;72.33;103239.31;5016407;28;45446;-50
2021/12/16 05:40:27;;;;;;;;;40.00;34.50;;;;;10.42;71.98;103249.72;5016779;28;45394;-53
2021/12/16 05:42:56;;;;;;;;;35.00;28.25;;;;;10.41;71.87;103258.66;5016952;28;45404;-55
2021/12/16 05:45:23;;;;;;;;;41.75;29.00;;;;;10.39;72.37;103263.19;5016135;28;45619;-52
2021/12/16 05:47:50;;;;;;;;;44.25;31.00;;;;;10.42;72.25;103257.69;5016403;28;45265;-49
2021/12/16 05:50:15;;;;;;;;;30.50;25.00;;;;;10.41;72.17;103261.31;5016423;28;45353;-57
2021/12/16 05:52:41;;;;;;;;;39.75;30.75;;;;;10.43;72.14;103262.06;5016699;28;45324;-50
2021/12/16 05:55:10;;;;;;;;;38.50;31.50;;;;;10.45;72.11;103262.84;5016189;28;46326;-52
2021/12/16 05:57:35;;;;;;;;;31.50;27.50;;;;;10.41;71.93;103255.97;5016395;28;45230;-49
2021/12/16 06:00:01;;;;;;;;;34.50;26.50;;;;;10.47;71.66;103274.25;5016427;28;45352;-47
2021/12/16 06:02:26;;;;;;;;;41.00;27.50;;;;;10.45;71.54;103265.53;5016587;28;45459;-49
2021/12/16 06:04:52;;;;;;;;;37.00;29.00;;;;;10.49;71.65;103269.69;5016202;28;45932;-50
2021/12/16 06:07:19;;;;;;;;;34.00;30.75;;;;;10.49;71.29;103275.91;5016379;28;45407;-52
2021/12/16 06:09:46;;;;;;;;;27.33;23.67;;;;;10.51;71.12;103273.16;5016143;28;45229;-53
2021/12/16 06:12:12;;;;;;;;;35.00;26.33;;;;;10.52;71.19;103284.66;5016318;28;45573;-51
2021/12/16 06:14:52;;;;;;;;;35.50;27.50;;;;;10.54;71.21;103285.44;5015900;28;45446;-46
2021/12/16 06:26:25;;;;;;;;;32.00;27.00;;;;;10.52;71.44;103285.50;5016179;28;45420;-48
2021/12/16 06:28:26;;;;;;;;;46.75;30.25;;;;;10.52;71.51;103285.50;5019071;28;45335;-51
2021/12/16 06:30:51;;;;;;;;;36.25;27.25;;;;;10.53;71.53;103279.22;5019509;28;45376;-51
2021/12/16 06:33:22;;;;;;;;;39.00;29.25;;;;;10.53;71.38;103276.56;5019564;28;45463;-51
2021/12/16 06:35:52;;;;;;;;;41.00;31.25;;;;;10.52;71.67;103282.00;5019334;28;45439;-51
2021/12/16 06:38:18;;;;;;;;;35.00;28.75;;;;;10.52;71.94;103280.19;5019315;28;45398;-51
2021/12/16 06:40:44;;;;;;;;;38.25;31.75;;;;;10.53;71.95;103281.91;5019174;28;45302;-51
2021/12/16 06:43:11;;;;;;;;;41.00;32.00;;;;;10.49;71.75;103273.25;5019537;28;45297;-50
2021/12/16 06:45:40;;;;;;;;;35.00;32.00;;;;;10.51;71.75;103274.97;5019220;28;46170;-50
2021/12/16 06:48:16;;;;;;;;;40.75;31.75;;;;;10.54;71.94;103278.31;5018738;28;45513;-52
2021/12/16 06:53:16;;;;;;;;;36.00;29.00;;;;;10.53;71.57;103292.53;5019354;28;45409;-49
2021/12/16 06:55:48;;;;;;;;;38.50;29.00;;;;;10.53;71.81;103286.38;5018505;28;46172;-51
2021/12/16 06:58:22;;;;;;;;;38.50;35.75;;;;;10.40;72.04;103271.06;5018772;28;45429;-49
2021/12/16 07:00:50;;;;;;;;;37.25;33.00;;;;;10.53;71.96;103297.88;5019158;28;45194;-52
2021/12/16 07:03:19;;;;;;;;;38.25;31.50;;;;;10.39;71.77;103272.00;5019317;28;45385;-52
2021/12/16 07:05:47;;;;;;;;;38.75;29.25;;;;;10.54;71.79;103294.28;5018839;28;46018;-50
2021/12/16 07:08:16;;;;;;;;;38.00;34.00;;;;;10.55;71.68;103301.31;5018780;28;45348;-50
2021/12/16 07:10:45;;;;;;;;;27.00;27.00;;;;;10.49;71.69;103296.31;5018635;28;45365;-52
2021/12/16 07:13:17;;;;;;;;;33.00;27.33;;;;;10.55;72.11;103298.66;5018901;28;45407;-52
2021/12/16 07:15:45;;;;;;;;;35.00;29.00;;;;;10.55;71.71;103295.13;5018314;28;46204;-50
2021/12/16 07:18:11;;;;;;;;;34.00;28.00;;;;;10.56;72.07;103315.47;5018744;28;45396;-52
2021/12/16 07:20:37;;;;;;;;;29.00;25.33;;;;;10.57;71.99;103306.53;5018700;28;45328;-50
2021/12/16 07:23:05;;;;;;;;;34.00;26.00;;;;;10.56;71.96;103305.69;5019175;28;45315;-52
2021/12/16 07:25:30;;;;;;;;;33.67;28.00;;;;;10.50;71.61;103290.06;5018538;28;46193;-50
2021/12/16 07:27:56;;;;;;;;;37.75;31.00;;;;;10.56;72.04;103297.72;5018818;28;45633;-54
2021/12/16 07:30:23;;;;;;;;;30.75;30.25;;;;;10.59;71.84;103304.69;5019017;28;45534;-51
2021/12/16 07:32:50;;;;;;;;;37.00;26.33;;;;;10.59;71.74;103310.00;5018794;28;45442;-53
2021/12/16 07:35:20;;;;;;;;;38.67;28.33;;;;;10.60;71.71;103306.38;5018526;28;45370;-52
2021/12/16 07:37:46;;;;;;;;;33.67;24.67;;;;;10.62;71.88;103312.47;5018019;28;45400;-57
2021/12/16 07:40:17;;;;;;;;;36.00;28.33;;;;;10.63;71.87;103319.53;5017840;28;45441;-52
2021/12/16 07:45:28;;;;;;;;;34.67;28.33;;;;;10.51;71.79;103294.44;5018424;28;45304;-58
2021/12/16 07:47:54;;;;;;;;;32.25;27.00;;;;;10.62;71.90;103313.34;5018290;28;45453;-52
2021/12/16 07:50:20;;;;;;;;;38.25;30.50;;;;;10.64;71.81;103310.59;5018333;28;45174;-52
2021/12/16 07:52:46;;;;;;;;;34.33;28.00;;;;;10.63;71.76;103320.38;5017324;28;45365;-54
2021/12/16 07:55:13;;;;;;;;;34.25;28.00;;;;;10.64;71.60;103314.13;5016236;28;45815;-52
2021/12/16 07:57:39;;;;;;;;;32.00;26.00;;;;;10.65;71.73;103314.97;5016661;28;45570;-53
2021/12/16 08:00:11;;;;;;;;;31.33;27.00;;;;;10.66;71.57;103314.91;5016188;28;45491;-56
2021/12/16 08:02:37;;;;;;;;;30.25;27.00;;;;;10.67;71.67;103321.94;5015992;28;45443;-52
2021/12/16 08:05:05;;;;;;;;;28.00;24.75;;;;;10.69;71.61;103317.38;5016583;28;46178;-57
2021/12/16 08:07:31;;;;;;;;;40.00;28.25;;;;;10.68;71.62;103328.97;5016683;28;45483;-56
2021/12/16 08:09:56;;;;;;;;;34.67;28.33;;;;;10.70;71.56;103323.56;5016527;28;45873;-55
2021/12/16 08:12:22;;;;;;;;;39.25;32.00;;;;;10.72;71.52;103325.19;5016172;28;45452;-54
2021/12/16 08:14:47;;;;;;;;;37.00;28.67;;;;;10.72;71.61;103335.00;5015523;28;45552;-56
2021/12/16 08:17:14;;;;;;;;;31.33;25.33;;;;;10.76;71.54;103335.69;5016317;28;45439;-53
2021/12/16 08:19:40;;;;;;;;;32.00;25.33;;;;;10.77;71.41;103338.25;5016695;28;45381;-51
2021/12/16 08:22:06;;;;;;;;;38.33;28.67;;;;;10.79;71.47;103338.16;5016862;28;45592;-51
2021/12/16 08:24:31;;;;;;;;;45.00;29.33;;;;;10.80;70.67;103337.25;5016569;28;46064;-53
2021/12/16 08:26:57;;;;;;;;;40.67;27.67;;;;;10.82;71.32;103335.34;5016108;28;45436;-54
2021/12/16 08:29:24;;;;;;;;;27.33;25.67;;;;;10.80;70.81;103338.09;5016580;28;45470;-52
2021/12/16 08:31:50;;;;;;;;;40.33;28.67;;;;;10.86;70.93;103344.88;5016340;28;45316;-52
2021/12/16 08:34:17;;;;;;;;;30.67;26.67;;;;;10.84;70.93;103338.78;5015629;28;45482;-55
2021/12/16 08:36:43;;;;;;;;;35.33;29.00;;;;;10.88;70.93;103341.19;5016041;28;45502;-56
2021/12/16 08:39:10;;;;;;;;;33.00;24.00;;;;;10.90;71.02;103346.44;5015992;28;45434;-54
2021/12/16 08:41:40;;;;;;;;;35.33;28.00;;;;;10.90;70.86;103347.28;5016300;28;45353;-54
2021/12/16 08:44:05;;;;;;;;;28.67;26.67;;;;;10.93;70.56;103339.13;5015807;28;45437;-54
2021/12/16 08:46:34;;;;;;;;;30.33;27.00;;;;;10.96;70.30;103348.78;5015429;28;45393;-54
2021/12/16 08:48:59;;;;;;;;;33.67;29.67;;;;;10.99;70.13;103348.56;5015793;28;45302;-52
2021/12/16 08:51:32;;;;;;;;;32.67;27.00;;;;;11.01;70.47;103354.69;5015030;28;45314;-55
2021/12/16 08:53:58;;;;;;;;;33.00;24.00;;;;;11.01;70.20;103352.03;5015972;28;46265;-49
2021/12/16 08:56:27;;;;;;;;;37.00;28.33;;;;;11.03;70.18;103351.94;5016141;28;45385;-51
2021/12/16 08:58:53;;;;;;;;;24.67;23.00;;;;;11.07;69.54;103356.13;5015655;28;45424;-54
2021/12/16 09:01:26;;;;;;;;;32.33;27.33;;;;;11.10;69.80;103354.16;5015554;28;45421;-54
2021/12/16 09:03:54;;;;;;;;;33.00;28.00;;;;;11.14;69.90;103363.72;5015736;28;47600;-52
2021/12/16 09:06:20;;;;;;;;;29.67;26.33;;;;;11.15;69.58;103368.09;5015743;28;45514;-51
2021/12/16 09:08:46;;;;;;;;;43.67;27.67;;;;;11.16;69.27;103363.63;5016080;28;45778;-53
2021/12/16 09:11:19;;;;;;;;;31.33;26.67;;;;;11.19;68.87;103358.97;5016115;28;45505;-53
2021/12/16 09:13:46;;;;;;;;;25.33;22.67;;;;;11.22;69.15;103369.47;5015798;28;45364;-54
2021/12/16 09:16:15;;;;;;;;;29.00;22.67;;;;;11.24;68.79;103372.88;5015850;28;45404;-55
2021/12/16 09:18:42;;;;;;;;;28.00;22.33;;;;;11.24;68.33;103364.03;5016103;28;45366;-54
2021/12/16 09:21:10;;;;;;;;;29.33;25.00;;;;;11.29;68.41;103361.13;5015694;28;45344;-53
2021/12/16 09:23:35;;;;;;;;;29.00;23.67;;;;;11.31;68.27;103373.41;5015665;28;46579;-52
2021/12/16 09:26:02;;;;;;;;;31.00;24.67;;;;;11.34;68.22;103369.72;5015371;28;45382;-54
2021/12/16 09:28:27;;;;;;;;;33.33;26.67;;;;;11.31;68.60;103362.75;5015661;28;45505;-53
2021/12/16 09:30:53;;;;;;;;;20.33;18.33;;;;;11.38;67.70;103373.94;5015886;28;45547;-53
2021/12/16 09:33:22;;;;;;;;;29.00;26.67;;;;;11.32;67.85;103363.59;5015511;28;46291;-53
2021/12/16 09:35:51;;;;;;;;;29.67;25.00;;;;;11.42;67.61;103378.16;5015684;28;45479;-53
2021/12/16 09:38:17;;;;;;;;;29.67;24.67;;;;;11.33;68.30;103368.84;5015658;28;45449;-51
2021/12/16 09:40:49;;;;;;;;;26.67;24.33;;;;;11.46;67.65;103383.22;5015439;28;45678;-50
2021/12/16 09:43:18;;;;;;;;;35.67;23.67;;;;;11.48;67.35;103393.78;5015124;28;46086;-50
2021/12/16 09:45:44;;;;;;;;;25.67;23.33;;;;;11.49;67.79;103391.00;5014661;28;45506;-51
2021/12/16 09:48:09;;;;;;;;;23.00;18.67;;;;;11.40;67.55;103388.03;5014810;28;45488;-49
2021/12/16 09:50:35;;;;;;;;;30.00;24.33;;;;;11.51;67.17;103393.59;5015234;28;45470;-50
2021/12/16 09:53:01;;;;;;;;;28.00;21.33;;;;;11.53;66.84;103396.19;5014764;28;45393;-48
2021/12/16 09:55:28;;;;;;;;;30.33;27.33;;;;;11.55;67.21;103394.28;5014497;28;45489;-52
2021/12/16 09:57:54;;;;;;;;;24.00;19.33;;;;;11.59;66.71;103409.16;5014195;28;45531;-52
2021/12/16 10:00:24;;;;;;;;;27.33;23.33;;;;;11.58;66.87;103394.09;5014978;28;45460;-52
2021/12/16 10:02:51;;;;;;;;;27.67;25.33;;;;;11.64;66.88;103404.41;5016985;28;46310;-54
2021/12/16 10:05:18;;;;;;;;;29.00;23.33;;;;;11.63;67.04;103398.25;5018604;28;45470;-55
2021/12/16 10:07:44;;;;;;;;;30.33;21.67;;;;;11.68;66.92;103411.31;5017645;28;45441;-55
2021/12/16 10:10:13;;;;;;;;;29.33;23.00;;;;;11.70;66.63;103406.72;5018489;28;45451;-49
2021/12/16 10:12:42;;;;;;;;;35.67;25.67;;;;;11.66;66.80;103398.03;5017681;28;45485;-53
2021/12/16 10:17:23;;;;;;;;;29.00;26.33;;;;;11.70;66.45;103402.25;5017193;28;45309;-50
2021/12/16 10:18:04;;;;;;;;;36.00;22.67;;;;;11.72;67.06;103399.50;5017825;28;45380;-54
2021/12/16 10:20:41;;;;;;;;;27.67;21.67;;;;;11.67;66.58;103405.13;5018164;28;45470;-50
2021/12/16 10:23:22;;;;;;;;;32.67;25.33;;;;;11.75;67.13;103407.31;5018215;28;45351;-53
2021/12/16 10:25:55;;;;;;;;;34.00;26.00;;;;;11.76;67.05;103397.53;5017647;28;45836;-54
2021/12/16 10:28:25;;;;;;;;;30.00;27.67;;;;;11.79;66.42;103405.31;5017484;28;45505;-49
2021/12/16 10:30:57;;;;;;;;;30.33;24.33;;;;;11.83;66.36;103404.22;5017759;28;45576;-53
2021/12/16 10:33:29;;;;;;;;;27.50;25.50;;;;;11.86;66.38;103399.59;5017341;28;46207;-52
2021/12/16 10:36:17;;;;;;;;;26.67;21.00;;;;;11.87;66.83;103405.78;5017741;28;45392;-51
2021/12/16 10:38:43;;;;;;;;;32.67;28.33;;;;;11.88;66.16;103407.47;5017493;28;45500;-55
2021/12/16 10:41:11;;;;;;;;;27.00;22.33;;;;;11.80;66.58;103397.25;5017764;28;45549;-51
2021/12/16 10:43:45;;;;;;;;;36.00;26.67;;;;;11.88;66.79;103407.47;5017437;28;46073;-53
2021/12/16 10:46:18;;;;;;;;;34.00;26.00;;;;;11.82;66.71;103406.00;5016862;28;45469;-51
2021/12/16 10:48:49;;;;;;;;;32.33;25.00;;;;;11.88;66.87;103408.38;5017386;28;45482;-52
2021/12/16 10:51:29;;;;;;;;;33.67;27.67;;;;;11.91;66.64;103407.31;5017763;28;45849;-52
2021/12/16 10:54:14;;;;;;;;;36.67;29.67;;;;;11.93;66.59;103405.44;5016718;28;45281;-55
2021/12/16 10:56:56;;;;;;;;;35.00;28.00;;;;;11.94;66.34;103409.81;5016928;28;45807;-51
2021/12/16 10:59:45;;;;;;;;;47.67;33.33;;;;;11.86;66.07;103388.91;5017527;28;45508;-53
2021/12/16 11:02:12;;;;;;;;;37.33;30.33;;;;;11.96;66.24;103397.22;5017089;28;45422;-49
2021/12/16 11:04:46;;;;;;;;;41.67;29.33;;;;;12.01;65.91;103396.94;5017232;28;45712;-51
2021/12/16 11:07:26;;;;;;;;;29.00;22.00;;;;;12.00;65.84;103396.09;5017424;28;45429;-52
2021/12/16 11:09:54;;;;;;;;;28.00;23.00;;;;;12.00;65.99;103401.41;5017436;28;45384;-48
2021/12/16 11:12:31;;;;;;;;;38.33;30.33;;;;;12.01;65.68;103397.84;5016812;28;45419;-51
2021/12/16 11:15:14;;;;;;;;;34.33;27.67;;;;;12.04;65.85;103400.28;5016507;28;45516;-51
2021/12/16 11:17:54;;;;;;;;;29.33;29.00;;;;;12.05;66.25;103410.03;5016580;28;45511;-49
2021/12/16 11:20:31;;;;;;;;;29.67;22.00;;;;;12.00;65.97;103398.75;5017267;28;45398;-52
2021/12/16 11:23:08;;;;;;;;;43.67;32.67;;;;;12.06;65.96;103401.06;5016978;28;45431;-52
2021/12/16 11:25:51;;;;;;;;;35.33;28.67;;;;;12.07;65.83;103404.59;5016879;28;45498;-54
2021/12/16 11:28:38;;;;;;;;;35.33;29.67;;;;;12.08;65.67;103407.16;5016852;28;45473;-51
2021/12/16 11:31:03;;;;;;;;;32.33;26.67;;;;;12.10;65.88;103405.28;5016385;28;45460;-50
2021/12/16 11:33:29;;;;;;;;;31.00;26.33;;;;;12.10;65.53;103399.09;5016679;28;45570;-51
2021/12/16 11:36:00;;;;;;;;;33.33;26.33;;;;;12.12;65.22;103407.84;5016960;28;46165;-52
2021/12/16 11:38:36;;;;;;;;;29.67;26.00;;;;;12.13;65.42;103407.75;5016920;28;45417;-50
2021/12/16 11:41:08;;;;;;;;;36.00;29.33;;;;;12.13;65.40;103391.72;5015788;28;45435;-53
2021/12/16 11:43:33;;;;;;;;;38.67;33.33;;;;;12.16;65.69;103401.38;5016725;28;45511;-54
2021/12/16 11:45:59;;;;;;;;;40.33;29.67;;;;;12.04;65.62;103381.63;5016612;28;46233;-53
2021/12/16 11:48:32;;;;;;;;;32.00;27.00;;;;;12.16;65.14;103398.72;5016534;28;45368;-52
2021/12/16 11:51:08;;;;;;;;;45.00;27.00;;;;;12.04;65.61;103373.63;5018747;28;45371;-53
2021/12/16 11:53:44;;;;;;;;;37.33;33.67;;;;;12.16;65.54;103391.56;5018593;28;45275;-53
2021/12/16 11:56:11;;;;;;;;;40.00;31.67;;;;;12.12;65.49;103392.69;5018065;28;47073;-53
2021/12/16 11:58:40;;;;;;;;;34.33;28.00;;;;;12.15;65.92;103389.84;5017896;28;45418;-55
2021/12/16 12:01:15;;;;;;;;;40.67;29.33;;;;;12.15;65.26;103387.19;5018073;28;45378;-51
2021/12/16 12:03:41;;;;;;;;;33.67;31.67;;;;;12.16;65.73;103386.22;5018265;28;45295;-53
2021/12/16 12:06:18;;;;;;;;;40.00;34.33;;;;;12.16;65.43;103391.56;5015556;28;45628;-51
2021/12/16 12:08:46;;;;;;;;;34.67;32.00;;;;;12.16;65.39;103391.56;5016565;28;45327;-49
2021/12/16 12:11:22;;;;;;;;;36.67;29.00;;;;;12.17;65.81;103385.25;5016382;28;45390;-49
2021/12/16 12:13:56;;;;;;;;;44.00;33.67;;;;;12.19;65.55;103387.84;5016042;28;45646;-54
2021/12/16 12:16:30;;;;;;;;;37.00;32.00;;;;;12.17;66.00;103389.75;5015315;28;46273;-53
2021/12/16 12:18:59;;;;;;;;;35.00;32.00;;;;;12.18;65.38;103391.47;5015818;28;45504;-54
2021/12/16 12:21:33;;;;;;;;;35.00;29.00;;;;;12.18;64.99;103380.81;5016075;28;45434;-51
2021/12/16 12:24:09;;;;;;;;;33.67;29.00;;;;;12.21;65.27;103377.94;5016038;28;45412;-52
2021/12/16 12:26:42;;;;;;;;;40.67;29.67;;;;;12.24;65.40;103377.75;5015840;28;45459;-51
2021/12/16 12:29:19;;;;;;;;;45.00;39.00;;;;;12.24;65.19;103383.09;5015917;28;45418;-52
2021/12/16 12:31:50;;;;;;;;;35.00;33.67;;;;;12.24;64.92;103375.94;5015833;28;45511;-53
2021/12/16 12:34:17;;;;;;;;;32.00;27.33;;;;;12.24;65.30;103373.28;5016185;28;45395;-50
2021/12/16 12:36:45;;;;;;;;;35.33;30.00;;;;;12.26;65.82;103366.97;5016154;28;46445;-53
2021/12/16 12:39:17;;;;;;;;;39.67;37.33;;;;;12.24;65.14;103370.59;5015721;28;45421;-52
2021/12/16 12:41:46;;;;;;;;;40.67;32.00;;;;;12.15;65.03;103355.16;5015703;28;45532;-52
2021/12/16 12:44:12;;;;;;;;;43.33;31.00;;;;;12.31;64.63;103372.91;5015923;28;45445;-53
2021/12/16 12:46:39;;;;;;;;;31.00;28.33;;;;;12.32;64.99;103369.28;5015473;28;46315;-52
2021/12/16 12:49:11;;;;;;;;;28.67;24.67;;;;;12.35;64.46;103369.97;5015242;28;45466;-51
2021/12/16 12:51:45;;;;;;;;;31.00;31.00;;;;;12.35;64.62;103364.63;5015993;28;45553;-52
2021/12/16 12:54:15;;;;;;;;;33.33;27.67;;;;;12.33;64.02;103360.31;5015888;28;45430;-52
2021/12/16 12:56:41;;;;;;;;;35.00;30.00;;;;;12.34;63.60;103360.22;5015468;28;45788;-53
2021/12/16 12:59:12;;;;;;;;;34.00;27.67;;;;;12.37;63.81;103361.84;5015180;28;45335;-52
2021/12/16 13:01:47;;;;;;;;;33.00;28.67;;;;;12.36;63.87;103352.13;5015893;28;45339;-53
2021/12/16 13:04:24;;;;;;;;;38.33;27.67;;;;;12.35;64.16;103355.75;5015029;28;45726;-49
2021/12/16 13:07:03;;;;;;;;;23.67;23.00;;;;;12.36;64.21;103361.00;5014812;28;46918;-52
2021/12/16 13:09:41;;;;;;;;;31.67;25.00;;;;;12.34;63.72;103351.34;5014356;28;45472;-50
2021/12/16 13:12:41;;;;;;;;;31.33;30.67;;;;;12.33;63.53;103355.84;5014571;28;45445;-50
2021/12/16 13:15:22;;;;;;;;;30.33;28.00;;;;;12.35;63.90;103351.28;5014725;28;45401;-51
2021/12/16 13:23:41;;;;;;;;;30.33;24.00;;;;;12.41;64.05;103347.38;5014889;28;45378;-51
2021/12/16 13:26:34;;;;;;;;;34.00;31.00;;;;;12.32;63.87;103332.78;5015260;28;45479;-51
2021/12/16 13:29:29;;;;;;;;;36.33;28.33;;;;;12.40;64.06;103351.00;4996937;28;46354;-50
2021/12/16 13:34:37;;;;;;;;;31.67;25.33;;;;;12.42;63.18;103341.06;5015142;28;45548;-50
2021/12/16 13:37:20;;;;;;;;;31.00;27.33;;;;;12.36;63.65;103334.31;5015863;28;45342;-50
2021/12/16 13:39:47;;;;;;;;;31.33;27.00;;;;;12.36;63.16;103334.31;5018148;28;46395;-52
2021/12/16 13:42:15;;;;;;;;;31.33;25.00;;;;;12.36;62.71;103334.31;5018349;28;45394;-53
2021/12/16 13:45:08;;;;;;;;;32.00;30.00;;;;;12.35;63.10;103332.59;5018052;28;45540;-51
2021/12/16 13:48:09;;;;;;;;;27.67;24.00;;;;;12.36;63.46;103336.13;5018822;28;45602;-52
2021/12/16 14:02:58;;;;;;;;;24.33;22.00;;;;;12.27;62.85;103334.03;5018376;28;45604;-53
2021/12/16 14:05:47;;;;;;;;;31.33;24.00;;;;;12.28;63.39;103343.75;5017970;28;45793;-55
2021/12/16 14:08:30;;;;;;;;;28.00;20.67;;;;;12.27;62.89;103336.69;5018261;28;45577;-53
2021/12/16 14:11:00;;;;;;;;;27.33;24.33;;;;;12.26;63.25;103345.63;5018204;28;45478;-54
2021/12/16 14:16:27;;;;;;;;;32.00;24.33;;;;;12.25;63.33;103336.75;5017620;28;45343;-52